Time;durP1;ratioP1;P1;durP2;ratioP2;P2;SDS_P1;SDS_P2;PMS_P1;PMS_P2;Temp;Humidity;BMP_temperature;BMP_pressure;BME280_temperature;BME280_humidity;BME280_pressure;Samples;Min_cycle;Max_cycle;Signal;HPM_P1;HPM_P2
2023/08/05 00:01:26;;;;;;;10.53;6.50;;;16.80;78.10;;;;;;5050963;28;20214;-78
2023/08/05 00:03:52;;;;;;;13.83;7.57;;;16.90;78.30;;;;;;5040273;28;20226;-78
2023/08/05 00:06:17;;;;;;;10.13;5.67;;;17.00;78.10;;;;;;5061100;28;20185;-77
2023/08/05 00:08:43;;;;;;;10.20;5.77;;;16.80;78.40;;;;;;5065308;28;20208;-78
2023/08/05 00:11:09;;;;;;;11.77;6.07;;;16.90;78.60;;;;;;5050158;28;20689;-78
2023/08/05 00:13:35;;;;;;;13.97;6.90;;;17.00;78.40;;;;;;5058080;28;20434;-78
2023/08/05 00:16:02;;;;;;;11.53;6.60;;;17.00;78.30;;;;;;5060729;28;20192;-78
2023/08/05 00:18:28;;;;;;;10.20;6.30;;;17.00;78.30;;;;;;5054103;28;20283;-78
2023/08/05 00:20:53;;;;;;;10.73;6.00;;;16.90;78.30;;;;;;5049823;28;20556;-77
2023/08/05 00:23:19;;;;;;;11.07;5.80;;;16.90;78.60;;;;;;5060850;28;20234;-77
2023/08/05 00:25:45;;;;;;;12.23;6.37;;;17.00;78.60;;;;;;5068461;28;20233;-80
2023/08/05 00:28:11;;;;;;;11.83;6.17;;;17.10;78.30;;;;;;5058918;28;20431;-82
2023/08/05 00:30:36;;;;;;;9.80;6.10;;;17.10;78.00;;;;;;5060363;28;20207;-83
2023/08/05 00:33:02;;;;;;;10.47;5.80;;;17.20;77.80;;;;;;5079828;28;20264;-80
2023/08/05 00:35:28;;;;;;;12.27;6.10;;;17.20;77.30;;;;;;5086408;28;20206;-83
2023/08/05 00:37:53;;;;;;;9.97;5.57;;;17.00;77.80;;;;;;5076022;28;20540;-79
2023/08/05 00:40:19;;;;;;;10.10;5.97;;;17.00;78.10;;;;;;5059501;28;20847;-79
2023/08/05 00:42:45;;;;;;;17.37;6.17;;;17.10;77.80;;;;;;5073314;28;20233;-79
2023/08/05 00:45:10;;;;;;;10.33;5.90;;;17.00;78.10;;;;;;5061544;28;20244;-79
2023/08/05 00:47:36;;;;;;;9.83;5.30;;;17.00;78.40;;;;;;5082200;28;20218;-79
2023/08/05 00:50:03;;;;;;;14.00;6.23;;;17.00;78.40;;;;;;5061967;28;20249;-80
2023/08/05 00:52:29;;;;;;;10.47;4.80;;;16.90;78.10;;;;;;5068820;28;20568;-79
2023/08/05 00:54:55;;;;;;;11.00;6.30;;;16.80;78.60;;;;;;5060258;28;20427;-81
2023/08/05 00:57:21;;;;;;;11.40;5.77;;;16.80;78.60;;;;;;5071693;28;20215;-80
2023/08/05 00:59:46;;;;;;;10.97;5.30;;;16.80;78.90;;;;;;5086210;28;20417;-78
2023/08/05 01:02:12;;;;;;;12.00;6.10;;;16.90;78.60;;;;;;5068279;28;20203;-79
2023/08/05 01:04:38;;;;;;;10.47;6.03;;;16.90;78.10;;;;;;5069832;28;20192;-81
2023/08/05 01:07:04;;;;;;;10.27;5.67;;;17.00;78.30;;;;;;5070004;28;20184;-79
2023/08/05 01:09:30;;;;;;;16.97;5.10;;;17.00;78.00;;;;;;5081483;28;20171;-80
2023/08/05 01:11:56;;;;;;;9.93;5.60;;;17.00;78.00;;;;;;5062689;28;20467;-78
2023/08/05 01:14:21;;;;;;;11.97;5.93;;;17.00;77.80;;;;;;5061114;28;20185;-78
2023/08/05 01:16:47;;;;;;;7.90;5.10;;;17.00;78.00;;;;;;5056787;28;20199;-78
2023/08/05 01:19:20;;;;;;;11.10;6.20;;;17.00;77.80;;;;;;5061612;28;20207;-77
2023/08/05 01:22:13;;;;;;;6.80;4.90;;;17.00;77.80;;;;;;5049252;28;20224;-79
2023/08/05 01:25:03;;;;;;;8.50;4.60;;;17.00;77.70;;;;;;5065453;28;20476;-78
2023/08/05 01:27:30;;;;;;;8.80;5.23;;;17.00;77.40;;;;;;5063442;28;20430;-78
2023/08/05 01:29:56;;;;;;;6.90;4.90;;;17.10;77.10;;;;;;5070641;28;20423;-78
2023/08/05 01:32:22;;;;;;;8.73;4.80;;;17.00;77.30;;;;;;5044061;28;20454;-79
2023/08/05 01:34:49;;;;;;;10.33;5.53;;;16.90;77.70;;;;;;5050665;28;20184;-79
2023/08/05 01:37:14;;;;;;;9.90;5.37;;;16.90;77.80;;;;;;5065019;28;20464;-79
2023/08/05 01:39:40;;;;;;;9.30;5.37;;;17.00;77.80;;;;;;5063381;28;20437;-77
2023/08/05 01:42:06;;;;;;;13.40;6.23;;;17.00;77.80;;;;;;5069417;28;20224;-78
2023/08/05 01:44:32;;;;;;;8.53;5.10;;;16.90;77.70;;;;;;5077116;28;20192;-79
2023/08/05 01:46:57;;;;;;;8.70;4.77;;;16.90;77.80;;;;;;5067017;28;20435;-79
2023/08/05 01:49:23;;;;;;;9.47;5.17;;;17.00;77.60;;;;;;5083101;28;20257;-80
2023/08/05 01:51:48;;;;;;;10.90;5.07;;;17.10;77.30;;;;;;5060505;28;20724;-81
2023/08/05 01:54:16;;;;;;;13.80;6.10;;;17.10;77.00;;;;;;5064753;28;20188;-79
2023/08/05 01:56:41;;;;;;;11.10;6.00;;;16.90;77.10;;;;;;5062535;28;20219;-82
2023/08/05 01:59:07;;;;;;;10.80;5.40;;;16.80;77.70;;;;;;5056004;28;20449;-80
2023/08/05 02:01:43;;;;;;;8.67;5.37;;;16.80;77.70;;;;;;5054598;28;20206;-80
2023/08/05 02:04:09;;;;;;;8.30;5.17;;;16.80;78.10;;;;;;5065190;28;20204;-80
2023/08/05 02:06:35;;;;;;;14.63;5.83;;;16.80;78.00;;;;;;5079223;28;20434;-83
2023/08/05 02:09:00;;;;;;;9.47;5.70;;;16.90;78.00;;;;;;5070842;28;20218;-84
2023/08/05 02:11:26;;;;;;;11.83;5.07;;;16.90;77.80;;;;;;5066624;28;20235;-81
2023/08/05 02:13:51;;;;;;;8.37;5.30;;;17.00;77.40;;;;;;5057161;28;20207;-78
2023/08/05 02:16:17;;;;;;;11.07;5.67;;;16.70;77.80;;;;;;5066846;28;20199;-79
2023/08/05 02:18:43;;;;;;;7.93;5.07;;;16.60;78.40;;;;;;5057873;28;20199;-81
2023/08/05 02:21:08;;;;;;;7.97;5.10;;;16.60;78.70;;;;;;5046658;28;20632;-79
2023/08/05 02:23:34;;;;;;;11.00;6.27;;;16.70;78.70;;;;;;5056613;28;20218;-79
2023/08/05 02:26:02;;;;;;;9.60;5.27;;;16.60;78.40;;;;;;5056732;28;20193;-82
2023/08/05 02:28:27;;;;;;;9.30;5.13;;;16.70;78.60;;;;;;5069297;28;20199;-79
2023/08/05 02:30:53;;;;;;;7.77;5.13;;;16.60;78.70;;;;;;5037978;28;20467;-80
2023/08/05 02:33:18;;;;;;;10.73;5.40;;;16.60;78.70;;;;;;5059851;28;20199;-81
2023/08/05 02:35:46;;;;;;;11.47;5.40;;;16.50;78.90;;;;;;5070837;28;20188;-80
2023/08/05 02:38:12;;;;;;;9.23;5.47;;;16.40;79.20;;;;;;5080690;28;20193;-83
2023/08/05 02:40:41;;;;;;;11.50;6.00;;;16.40;79.30;;;;;;5077689;28;20465;-81
2023/08/05 02:43:06;;;;;;;12.33;6.07;;;16.40;79.20;;;;;;5066440;28;21210;-79
2023/08/05 02:45:33;;;;;;;8.83;5.53;;;16.30;79.30;;;;;;5076830;28;20431;-82
2023/08/05 02:47:58;;;;;;;12.70;6.67;;;16.30;79.60;;;;;;5076205;28;20186;-80
2023/08/05 02:50:24;;;;;;;8.40;4.97;;;16.30;79.70;;;;;;5067515;28;20490;-79
2023/08/05 02:52:50;;;;;;;9.30;5.40;;;16.40;79.50;;;;;;5083014;28;20192;-79
2023/08/05 02:55:15;;;;;;;10.47;6.03;;;16.40;79.50;;;;;;5092055;28;20197;-81
2023/08/05 02:57:41;;;;;;;13.10;6.53;;;16.30;79.50;;;;;;5079862;28;20242;-81
2023/08/05 03:00:07;;;;;;;11.07;6.13;;;16.10;80.00;;;;;;5069310;28;20190;-81
2023/08/05 03:02:33;;;;;;;11.97;5.70;;;16.00;80.60;;;;;;5049441;28;20222;-80
2023/08/05 03:04:59;;;;;;;10.53;5.80;;;16.00;80.60;;;;;;5055743;28;20447;-81
2023/08/05 03:07:24;;;;;;;13.03;6.47;;;16.10;80.20;;;;;;5076562;28;20192;-81
2023/08/05 03:09:50;;;;;;;8.43;5.77;;;16.10;80.20;;;;;;5072541;28;20192;-78
2023/08/05 03:12:15;;;;;;;7.50;5.13;;;16.10;80.00;;;;;;5052095;28;20196;-79
2023/08/05 03:14:41;;;;;;;11.63;7.70;;;16.10;80.00;;;;;;5060957;28;20188;-78
2023/08/05 03:17:07;;;;;;;12.23;6.40;;;16.00;80.50;;;;;;5050506;28;20199;-78
2023/08/05 03:19:32;;;;;;;9.87;6.07;;;16.00;80.60;;;;;;5052298;28;20620;-78
2023/08/05 03:21:58;;;;;;;10.23;6.10;;;16.10;80.60;;;;;;5054435;28;20216;-78
2023/08/05 03:24:23;;;;;;;9.57;5.20;;;16.10;80.50;;;;;;5061688;28;20191;-78
2023/08/05 03:26:49;;;;;;;17.27;6.67;;;16.10;80.50;;;;;;5062001;28;20191;-78
2023/08/05 03:29:15;;;;;;;10.70;6.33;;;16.10;80.00;;;;;;5054914;28;20259;-78
2023/08/05 03:31:40;;;;;;;11.03;6.10;;;16.30;80.00;;;;;;5052570;28;20234;-78
2023/08/05 03:34:06;;;;;;;15.13;6.90;;;16.30;79.70;;;;;;5060308;28;20200;-78
2023/08/05 03:36:31;;;;;;;9.27;6.00;;;16.30;79.60;;;;;;5065222;28;20185;-78
2023/08/05 03:38:57;;;;;;;11.90;6.60;;;16.20;79.50;;;;;;5069073;28;20207;-78
2023/08/05 03:41:23;;;;;;;14.20;7.07;;;16.30;79.30;;;;;;5052733;28;20269;-78
2023/08/05 03:43:49;;;;;;;10.63;6.40;;;16.40;79.20;;;;;;5057829;28;20242;-78
2023/08/05 03:46:14;;;;;;;11.90;6.80;;;16.40;79.20;;;;;;5060420;28;20561;-78
2023/08/05 03:48:40;;;;;;;13.30;6.40;;;16.40;79.30;;;;;;5054428;28;20437;-77
2023/08/05 03:51:05;;;;;;;8.10;5.43;;;16.40;79.20;;;;;;5047891;28;20197;-77
2023/08/05 03:53:31;;;;;;;10.27;6.07;;;16.40;79.00;;;;;;5054118;28;20931;-80
2023/08/05 03:55:57;;;;;;;10.93;6.43;;;16.40;79.30;;;;;;5055116;28;20197;-79
2023/08/05 03:58:23;;;;;;;16.03;7.27;;;16.40;79.20;;;;;;5056321;28;20322;-78
2023/08/05 04:00:49;;;;;;;13.97;5.93;;;16.40;79.00;;;;;;5052184;28;20566;-78
2023/08/05 04:03:15;;;;;;;12.97;5.93;;;16.30;79.00;;;;;;5059874;28;20486;-77
2023/08/05 04:05:40;;;;;;;10.10;5.60;;;16.20;79.30;;;;;;5060466;28;20464;-78
2023/08/05 04:08:06;;;;;;;9.80;5.50;;;16.20;79.50;;;;;;5056369;28;20196;-78
2023/08/05 04:10:34;;;;;;;13.93;6.17;;;16.20;79.60;;;;;;5058341;28;20204;-77
2023/08/05 04:13:01;;;;;;;12.63;5.73;;;16.30;79.90;;;;;;5071506;28;20184;-77
2023/08/05 04:15:28;;;;;;;10.43;5.17;;;16.30;79.50;;;;;;5083335;28;20438;-79
2023/08/05 04:17:59;;;;;;;8.53;5.33;;;16.40;79.20;;;;;;5081548;28;20439;-79
2023/08/05 04:20:25;;;;;;;11.30;5.87;;;16.40;79.00;;;;;;5065459;28;20474;-79
2023/08/05 04:22:50;;;;;;;11.40;6.53;;;16.30;79.00;;;;;;5068620;28;20492;-78
2023/08/05 04:25:16;;;;;;;12.47;5.80;;;16.40;79.00;;;;;;5064573;28;20449;-80
2023/08/05 04:27:42;;;;;;;9.80;5.90;;;16.30;79.00;;;;;;5055153;28;20191;-78
2023/08/05 04:30:08;;;;;;;10.10;6.00;;;16.30;79.20;;;;;;5055895;28;20473;-79
2023/08/05 04:32:35;;;;;;;12.37;6.73;;;16.30;79.30;;;;;;5062454;28;20184;-79
2023/08/05 04:35:01;;;;;;;14.17;6.90;;;16.30;79.30;;;;;;5060993;28;20430;-79
2023/08/05 04:37:27;;;;;;;11.10;6.27;;;16.10;79.50;;;;;;5059058;28;20434;-78
2023/08/05 04:39:56;;;;;;;12.37;6.67;;;16.10;79.90;;;;;;5069829;28;20188;-82
2023/08/05 04:42:21;;;;;;;19.27;6.17;;;16.20;79.90;;;;;;5095957;28;20456;-81
2023/08/05 04:44:47;;;;;;;12.80;6.70;;;16.20;79.60;;;;;;5097254;28;20458;-82
2023/08/05 04:47:13;;;;;;;11.80;6.60;;;16.30;79.30;;;;;;5085369;28;20207;-79
2023/08/05 04:49:42;;;;;;;9.27;5.37;;;16.40;79.00;;;;;;5065945;28;20197;-79
2023/08/05 04:52:08;;;;;;;9.83;6.77;;;16.40;78.70;;;;;;5054009;28;20242;-78
2023/08/05 04:54:39;;;;;;;14.17;7.13;;;16.40;78.60;;;;;;5065421;28;20531;-79
2023/08/05 04:57:05;;;;;;;11.37;6.20;;;16.10;79.00;;;;;;5054542;28;20551;-79
2023/08/05 04:59:31;;;;;;;10.90;6.03;;;16.10;79.60;;;;;;5066169;28;20428;-79
2023/08/05 05:01:57;;;;;;;11.37;6.07;;;16.20;79.50;;;;;;5049526;28;20570;-78
2023/08/05 05:04:22;;;;;;;12.33;6.20;;;16.20;79.20;;;;;;5062322;28;20446;-78
2023/08/05 05:06:48;;;;;;;15.70;7.03;;;16.30;79.00;;;;;;5066135;28;20292;-78
2023/08/05 05:09:14;;;;;;;10.37;6.70;;;16.30;78.90;;;;;;5072673;28;20293;-79
2023/08/05 05:11:40;;;;;;;9.00;5.33;;;16.20;79.20;;;;;;5053006;28;20204;-78
2023/08/05 05:14:06;;;;;;;18.07;6.03;;;16.30;79.30;;;;;;5062495;28;20230;-78
2023/08/05 05:16:32;;;;;;;12.00;5.90;;;16.30;79.00;;;;;;5057516;28;20468;-79
2023/08/05 05:18:57;;;;;;;10.57;5.83;;;16.40;79.20;;;;;;5061411;28;20740;-78
2023/08/05 05:21:23;;;;;;;7.73;5.23;;;16.50;78.70;;;;;;5053371;28;20610;-79
2023/08/05 05:23:48;;;;;;;9.90;5.80;;;16.60;78.40;;;;;;5058808;28;20786;-79
2023/08/05 05:26:14;;;;;;;14.07;5.90;;;16.60;78.40;;;;;;5061580;28;20191;-79
2023/08/05 05:28:40;;;;;;;9.70;5.30;;;16.50;78.40;;;;;;5074422;28;20584;-79
2023/08/05 05:31:05;;;;;;;11.70;6.60;;;16.60;78.40;;;;;;5059567;28;20211;-79
2023/08/05 05:33:31;;;;;;;8.67;5.73;;;16.60;78.10;;;;;;5067024;28;20235;-79
2023/08/05 05:35:57;;;;;;;12.27;6.90;;;16.60;77.80;;;;;;5064568;28;20555;-81
2023/08/05 05:38:22;;;;;;;13.07;6.43;;;16.60;78.00;;;;;;5074474;28;20199;-78
2023/08/05 05:40:48;;;;;;;11.60;5.30;;;16.60;78.10;;;;;;5060866;28;20218;-78
2023/08/05 05:43:14;;;;;;;12.57;5.40;;;16.70;78.00;;;;;;5050852;28;20761;-77
2023/08/05 05:45:41;;;;;;;9.80;5.93;;;16.70;77.60;;;;;;5061083;28;20190;-78
2023/08/05 05:48:06;;;;;;;12.07;6.20;;;16.50;77.80;;;;;;5075276;28;20275;-78
2023/08/05 05:50:32;;;;;;;13.63;5.73;;;16.40;78.60;;;;;;5077449;28;20470;-79
2023/08/05 05:52:58;;;;;;;13.20;6.50;;;16.60;78.60;;;;;;5080829;28;20192;-80
2023/08/05 05:55:24;;;;;;;11.20;6.10;;;16.60;78.30;;;;;;5078919;28;20350;-78
2023/08/05 05:57:49;;;;;;;13.20;7.00;;;16.50;78.40;;;;;;5075501;28;20196;-78
2023/08/05 06:00:15;;;;;;;10.60;5.93;;;16.50;78.10;;;;;;5080797;28;20551;-78
2023/08/05 06:02:41;;;;;;;11.70;6.10;;;16.50;78.70;;;;;;5075794;28;20224;-79
2023/08/05 06:05:07;;;;;;;11.80;5.37;;;16.60;78.30;;;;;;5067860;28;20220;-78
2023/08/05 06:07:33;;;;;;;10.33;5.70;;;16.70;77.80;;;;;;5062985;28;21044;-79
2023/08/05 06:09:59;;;;;;;12.80;6.20;;;16.80;77.80;;;;;;5059249;28;20430;-80
2023/08/05 06:12:30;;;;;;;14.17;5.53;;;16.90;77.00;;;;;;5050943;28;20190;-80
2023/08/05 06:14:56;;;;;;;11.57;5.83;;;17.00;76.70;;;;;;5063057;28;20203;-79
2023/08/05 06:17:21;;;;;;;11.43;6.07;;;16.90;76.50;;;;;;5061601;28;20417;-78
2023/08/05 06:19:47;;;;;;;14.47;6.70;;;16.80;76.70;;;;;;5062993;28;20199;-80
2023/08/05 06:22:13;;;;;;;8.27;5.40;;;16.60;77.10;;;;;;5055989;28;20252;-79
2023/08/05 06:24:39;;;;;;;8.30;5.00;;;16.70;77.80;;;;;;5075848;28;20184;-80
2023/08/05 06:27:05;;;;;;;11.33;5.07;;;16.80;77.60;;;;;;5077437;28;20283;-78
2023/08/05 06:29:30;;;;;;;12.00;5.67;;;17.00;76.80;;;;;;5062509;28;20258;-80
2023/08/05 06:31:56;;;;;;;10.93;5.30;;;17.10;76.10;;;;;;5060130;28;20924;-81
2023/08/05 06:34:22;;;;;;;7.93;5.00;;;17.10;76.40;;;;;;5070172;28;20187;-81
2023/08/05 06:36:47;;;;;;;9.43;5.40;;;17.20;76.20;;;;;;5075763;28;20188;-80
2023/08/05 06:39:13;;;;;;;6.33;4.17;;;17.20;75.40;;;;;;5075426;28;20192;-82
2023/08/05 06:41:38;;;;;;;8.57;4.90;;;17.10;75.80;;;;;;5060227;28;20211;-79
2023/08/05 06:44:04;;;;;;;9.27;4.90;;;17.30;75.70;;;;;;5083252;28;20202;-79
2023/08/05 06:46:30;;;;;;;6.43;4.93;;;17.30;75.50;;;;;;5070987;28;20188;-81
2023/08/05 06:48:55;;;;;;;10.37;5.60;;;17.10;75.50;;;;;;5072051;28;20204;-79
2023/08/05 06:51:21;;;;;;;9.10;5.53;;;16.90;75.90;;;;;;5059621;28;20215;-77
2023/08/05 06:53:47;;;;;;;10.67;5.47;;;16.70;76.70;;;;;;5056830;28;20191;-79
2023/08/05 06:56:13;;;;;;;9.37;5.67;;;16.60;77.40;;;;;;5047999;28;20203;-78
2023/08/05 06:58:39;;;;;;;8.10;4.97;;;16.70;77.40;;;;;;5047523;28;20180;-76
2023/08/05 07:01:04;;;;;;;8.93;5.53;;;16.90;77.10;;;;;;5051514;28;20457;-77
2023/08/05 07:03:30;;;;;;;9.37;5.50;;;16.70;76.80;;;;;;5058913;28;20583;-77
2023/08/05 07:05:56;;;;;;;26.63;12.40;;;16.80;77.10;;;;;;5050493;28;20188;-78
2023/08/05 07:08:24;;;;;;;11.50;7.67;;;17.00;77.10;;;;;;5054739;28;20239;-77
2023/08/05 07:10:56;;;;;;;13.50;6.40;;;16.90;76.50;;;;;;5036425;28;20837;-79
2023/08/05 07:13:22;;;;;;;10.67;6.93;;;16.70;77.00;;;;;;5048254;28;20427;-78
2023/08/05 07:15:48;;;;;;;9.30;6.20;;;16.80;77.30;;;;;;5064558;28;20887;-75
2023/08/05 07:18:13;;;;;;;12.57;5.43;;;16.80;77.30;;;;;;5060723;28;20203;-77
2023/08/05 07:20:42;;;;;;;9.80;5.53;;;17.00;77.30;;;;;;5053668;28;20631;-77
2023/08/05 07:23:08;;;;;;;10.07;6.20;;;17.10;77.00;;;;;;5055545;28;20212;-77
2023/08/05 07:25:33;;;;;;;8.47;5.47;;;17.10;76.40;;;;;;5066525;28;20433;-76
2023/08/05 07:27:59;;;;;;;7.57;4.73;;;17.00;76.20;;;;;;5059123;28;20203;-76
2023/08/05 07:30:24;;;;;;;7.43;4.93;;;17.10;76.50;;;;;;5055377;28;20205;-75
2023/08/05 07:32:50;;;;;;;10.67;5.40;;;17.20;75.50;;;;;;5055422;28;20223;-76
2023/08/05 07:35:15;;;;;;;7.60;5.03;;;17.30;75.10;;;;;;5057084;28;20211;-77
2023/08/05 07:37:46;;;;;;;9.30;5.60;;;17.40;74.80;;;;;;5061865;28;20219;-76
2023/08/05 07:40:12;;;;;;;10.03;5.07;;;17.40;74.90;;;;;;5058163;28;20254;-77
2023/08/05 07:42:45;;;;;;;17.57;8.10;;;17.60;74.90;;;;;;5063369;28;20559;-78
2023/08/05 07:45:16;;;;;;;12.43;6.00;;;17.80;74.00;;;;;;5054700;28;20426;-78
2023/08/05 07:47:43;;;;;;;7.80;4.73;;;17.60;74.20;;;;;;5048698;28;20526;-77
2023/08/05 07:50:10;;;;;;;10.53;5.80;;;17.50;74.60;;;;;;5060310;28;20454;-77
2023/08/05 07:52:37;;;;;;;10.13;5.30;;;17.70;73.90;;;;;;5060663;28;20432;-76
2023/08/05 07:55:04;;;;;;;8.40;5.37;;;17.70;73.90;;;;;;5038345;28;20453;-77
2023/08/05 07:57:30;;;;;;;10.00;5.10;;;17.80;73.60;;;;;;5066854;28;20450;-77
2023/08/05 07:59:56;;;;;;;8.53;5.03;;;18.00;73.50;;;;;;5062807;28;20426;-80
2023/08/05 08:02:22;;;;;;;7.47;4.70;;;17.90;73.30;;;;;;5056939;28;20477;-76
2023/08/05 08:04:51;;;;;;;9.40;4.93;;;17.90;73.30;;;;;;5057998;28;20181;-76
2023/08/05 08:07:17;;;;;;;9.70;4.67;;;17.90;73.60;;;;;;5045510;28;21032;-76
2023/08/05 08:09:43;;;;;;;5.73;3.97;;;18.00;73.90;;;;;;5056696;28;20667;-77
2023/08/05 08:12:08;;;;;;;10.67;4.83;;;18.30;73.30;;;;;;5051847;28;20686;-75
2023/08/05 08:14:34;;;;;;;6.90;4.27;;;18.50;72.30;;;;;;5065495;28;20190;-78
2023/08/05 08:17:00;;;;;;;5.97;4.20;;;18.60;72.10;;;;;;5068515;28;20193;-75
2023/08/05 08:19:25;;;;;;;10.83;5.03;;;18.70;71.40;;;;;;5060968;28;20232;-79
2023/08/05 08:21:51;;;;;;;11.00;6.40;;;18.80;71.10;;;;;;5051671;28;20214;-76
2023/08/05 08:24:17;;;;;;;8.20;5.50;;;18.30;72.40;;;;;;5052957;28;20604;-77
2023/08/05 08:26:42;;;;;;;6.90;4.53;;;18.00;73.60;;;;;;5064254;28;20434;-77
2023/08/05 08:29:08;;;;;;;10.63;6.30;;;18.00;73.70;;;;;;5055432;28;20198;-77
2023/08/05 08:31:33;;;;;;;9.70;5.60;;;17.80;73.90;;;;;;5052060;28;20312;-77
2023/08/05 08:33:59;;;;;;;6.33;4.50;;;17.90;73.90;;;;;;5054269;28;20579;-78
2023/08/05 08:36:25;;;;;;;7.77;5.03;;;17.80;73.90;;;;;;5057373;28;20686;-79
2023/08/05 08:38:51;;;;;;;6.57;4.47;;;17.90;73.50;;;;;;5057748;28;20873;-77
2023/08/05 08:41:17;;;;;;;8.60;4.90;;;18.10;73.50;;;;;;5051027;28;20464;-78
2023/08/05 08:43:44;;;;;;;7.37;4.80;;;18.40;72.70;;;;;;5060169;28;20475;-77
2023/08/05 08:46:12;;;;;;;8.53;5.37;;;18.40;72.60;;;;;;5057892;28;20427;-77
2023/08/05 08:48:38;;;;;;;8.20;5.37;;;18.40;72.10;;;;;;5063872;28;20487;-81
2023/08/05 08:51:05;;;;;;;8.27;5.50;;;18.40;71.60;;;;;;5045560;28;20472;-78
2023/08/05 08:53:34;;;;;;;10.00;5.23;;;18.30;72.40;;;;;;5049702;28;20411;-78
2023/08/05 08:56:01;;;;;;;11.20;5.50;;;18.40;72.00;;;;;;5055836;28;20441;-78
2023/08/05 08:58:26;;;;;;;6.53;4.60;;;18.60;72.10;;;;;;5066628;28;20424;-78
2023/08/05 09:00:53;;;;;;;5.80;4.43;;;18.70;70.50;;;;;;5057866;28;20472;-76
2023/08/05 09:03:23;;;;;;;7.93;4.70;;;18.60;70.80;;;;;;5037136;28;20207;-76
2023/08/05 09:05:54;;;;;;;6.60;4.40;;;18.70;70.50;;;;;;5050579;28;20477;-77
2023/08/05 09:08:20;;;;;;;7.40;4.50;;;18.70;71.30;;;;;;5063108;28;20523;-76
2023/08/05 09:10:45;;;;;;;6.17;4.50;;;18.90;71.00;;;;;;5052742;28;20475;-78
2023/08/05 09:13:12;;;;;;;7.93;3.90;;;19.10;69.80;;;;;;5055340;28;20183;-76
2023/08/05 09:15:39;;;;;;;5.83;4.50;;;19.30;68.90;;;;;;5061366;28;20193;-75
2023/08/05 09:18:05;;;;;;;8.17;4.33;;;19.30;68.90;;;;;;5067872;28;20484;-77
2023/08/05 09:20:35;;;;;;;6.80;4.17;;;19.50;69.10;;;;;;5053906;28;20480;-77
2023/08/05 09:23:06;;;;;;;13.20;8.37;;;19.00;68.50;;;;;;5060722;28;20478;-77
2023/08/05 09:25:33;;;;;;;7.10;4.10;;;19.10;68.90;;;;;;5057012;28;20491;-76
2023/08/05 09:28:04;;;;;;;14.30;7.77;;;19.50;68.00;;;;;;5060560;28;20528;-79
2023/08/05 09:30:29;;;;;;;6.80;5.20;;;19.80;66.90;;;;;;5061719;28;20477;-76
2023/08/05 09:32:55;;;;;;;8.10;4.20;;;19.70;67.00;;;;;;5058543;28;20878;-76
2023/08/05 09:35:21;;;;;;;7.83;4.13;;;19.80;67.20;;;;;;5061600;28;20196;-78
2023/08/05 09:37:51;;;;;;;7.43;4.53;;;20.00;65.80;;;;;;5044245;28;20199;-77
2023/08/05 09:40:24;;;;;;;6.20;4.07;;;20.20;65.30;;;;;;5066878;28;20476;-75
2023/08/05 09:42:53;;;;;;;5.00;3.90;;;20.50;64.80;;;;;;5058559;28;20610;-78
2023/08/05 09:45:20;;;;;;;4.90;3.23;;;20.70;64.70;;;;;;5059426;28;20428;-77
2023/08/05 09:47:47;;;;;;;5.00;3.77;;;20.90;64.40;;;;;;5067018;28;20549;-78
2023/08/05 09:50:17;;;;;;;5.77;3.53;;;20.80;64.20;;;;;;5033961;28;20448;-77
2023/08/05 09:52:43;;;;;;;5.33;3.43;;;20.90;64.50;;;;;;5050409;28;20444;-78
2023/08/05 09:55:14;;;;;;;8.33;3.53;;;21.30;62.90;;;;;;5048406;28;20437;-77
2023/08/05 09:57:41;;;;;;;5.87;3.10;;;21.50;62.00;;;;;;5061952;28;20534;-76
2023/08/05 10:00:11;;;;;;;4.33;3.30;;;20.70;62.50;;;;;;5052795;28;20569;-76
2023/08/05 10:02:42;;;;;;;4.50;3.53;;;20.30;63.50;;;;;;5055978;28;20478;-77
2023/08/05 10:05:10;;;;;;;5.27;2.90;;;20.30;64.70;;;;;;5048686;28;20540;-77
2023/08/05 10:07:40;;;;;;;4.50;3.50;;;20.30;64.50;;;;;;5048444;28;20431;-78
2023/08/05 10:10:15;;;;;;;5.87;3.23;;;20.30;64.50;;;;;;5049754;28;20438;-79
2023/08/05 10:12:52;;;;;;;3.17;2.90;;;20.40;64.80;;;;;;5048395;28;20524;-78
2023/08/05 10:15:24;;;;;;;4.93;3.07;;;20.70;64.10;;;;;;5049776;28;20443;-77
2023/08/05 10:17:50;;;;;;;7.17;3.17;;;21.00;63.70;;;;;;5057480;28;20433;-76
2023/08/05 10:20:16;;;;;;;7.50;4.40;;;20.80;63.90;;;;;;5053902;28;20478;-82
2023/08/05 10:23:03;;;;;;;4.57;3.50;;;20.30;64.50;;;;;;5048654;28;20237;-76
2023/08/05 10:25:40;;;;;;;4.87;3.27;;;20.40;64.50;;;;;;5059419;28;20435;-75
2023/08/05 10:28:07;;;;;;;5.43;3.30;;;20.50;64.20;;;;;;5057041;28;20441;-79
2023/08/05 10:30:40;;;;;;;8.10;3.47;;;20.80;64.40;;;;;;5056761;28;20551;-78
2023/08/05 10:33:05;;;;;;;5.07;3.47;;;20.70;64.40;;;;;;5052354;28;20432;-77
2023/08/05 10:35:39;;;;;;;4.73;3.40;;;20.40;64.50;;;;;;5056123;28;20450;-76
2023/08/05 10:38:07;;;;;;;3.90;2.97;;;20.50;64.80;;;;;;5064741;28;20200;-77
2023/08/05 10:40:49;;;;;;;5.83;3.00;;;20.50;64.70;;;;;;5050812;28;20459;-76
2023/08/05 10:43:30;;;;;;;18.13;10.80;;;20.50;64.40;;;;;;5061888;28;20532;-80
2023/08/05 10:45:57;;;;;;;9.03;5.87;;;20.40;63.80;;;;;;5059232;28;20432;-77
2023/08/05 10:48:30;;;;;;;8.87;5.03;;;20.20;63.70;;;;;;5049641;28;20431;-77
2023/08/05 10:50:57;;;;;;;7.17;4.83;;;20.10;63.20;;;;;;5038374;28;20468;-79
2023/08/05 10:53:23;;;;;;;12.43;4.13;;;20.00;62.20;;;;;;5053065;28;20439;-76
2023/08/05 10:55:54;;;;;;;5.90;3.90;;;20.40;62.50;;;;;;5065716;28;20608;-76
2023/08/05 10:58:26;;;;;;;9.27;5.67;;;20.30;63.20;;;;;;5057697;28;20200;-76
2023/08/05 11:01:00;;;;;;;4.27;2.90;;;20.30;63.40;;;;;;5052203;28;21000;-76
2023/08/05 11:03:38;;;;;;;5.80;4.10;;;20.50;63.40;;;;;;5057209;28;20485;-77
2023/08/05 11:06:05;;;;;;;4.90;3.27;;;20.80;62.80;;;;;;5049556;28;20428;-76
2023/08/05 11:08:32;;;;;;;5.03;3.80;;;20.80;62.80;;;;;;5048826;28;20439;-77
2023/08/05 11:11:09;;;;;;;6.77;3.63;;;20.70;62.90;;;;;;5044133;28;20467;-76
2023/08/05 11:13:42;;;;;;;3.73;2.80;;;20.90;63.40;;;;;;5056482;28;20945;-78
2023/08/05 11:16:16;;;;;;;4.40;3.23;;;21.20;62.90;;;;;;5055925;28;20953;-78
2023/08/05 11:18:43;;;;;;;5.20;3.37;;;21.40;62.30;;;;;;5062056;28;20847;-76
2023/08/05 11:21:17;;;;;;;5.20;2.80;;;21.50;62.30;;;;;;5050155;28;20467;-76
2023/08/05 11:23:46;;;;;;;4.33;3.00;;;21.50;62.00;;;;;;5052006;28;21173;-76
2023/08/05 11:26:14;;;;;;;4.47;3.20;;;21.50;62.50;;;;;;5051209;28;20437;-79
2023/08/05 11:28:46;;;;;;;4.27;3.07;;;21.60;62.20;;;;;;5065119;28;20525;-78
2023/08/05 11:31:25;;;;;;;5.20;2.93;;;21.50;62.00;;;;;;5049456;28;20568;-76
2023/08/05 11:33:51;;;;;;;5.40;3.60;;;21.80;61.60;;;;;;5036891;28;21045;-78
2023/08/05 11:36:22;;;;;;;3.70;3.00;;;21.70;61.90;;;;;;5057194;28;20456;-76
2023/08/05 11:38:50;;;;;;;4.73;3.30;;;21.70;61.30;;;;;;5071607;28;20516;-77
2023/08/05 11:41:19;;;;;;;4.13;2.97;;;21.60;60.90;;;;;;5059208;28;21311;-80
2023/08/05 11:43:45;;;;;;;7.87;3.87;;;21.80;61.30;;;;;;5060373;28;20541;-77
2023/08/05 11:46:25;;;;;;;4.43;3.17;;;21.90;60.60;;;;;;5056517;28;20434;-77
2023/08/05 11:49:09;;;;;;;6.60;3.70;;;22.30;60.40;;;;;;5056249;28;20188;-77
2023/08/05 11:52:25;;;;;;;7.23;3.87;;;22.50;59.50;;;;;;5046643;28;20470;-78
2023/08/05 11:54:58;;;;;;;5.07;2.70;;;22.70;59.20;;;;;;4988727;28;20445;-78
2023/08/05 11:57:30;;;;;;;3.90;2.80;;;23.20;58.90;;;;;;4982538;28;20561;-78
2023/08/05 12:00:04;;;;;;;4.03;3.33;;;23.60;58.10;;;;;;4977316;28;20509;-77
2023/08/05 12:02:33;;;;;;;3.63;3.10;;;23.90;57.20;;;;;;4981075;28;20503;-77
2023/08/05 12:04:59;;;;;;;6.33;2.97;;;24.20;56.60;;;;;;4975809;28;20445;-77
2023/08/05 12:07:24;;;;;;;4.70;3.07;;;24.40;56.40;;;;;;4982394;28;20457;-76
2023/08/05 12:10:11;;;;;;;4.33;2.70;;;24.70;55.60;;;;;;4974454;28;20441;-76
2023/08/05 12:12:38;;;;;;;7.37;4.87;;;24.90;53.80;;;;;;4970164;28;20214;-77
2023/08/05 12:15:26;;;;;;;9.60;6.30;;;25.30;53.80;;;;;;4987778;28;20533;-76
2023/08/05 12:17:58;;;;;;;4.77;3.80;;;25.20;53.70;;;;;;4976374;28;20488;-77
2023/08/05 12:20:27;;;;;;;11.03;6.90;;;24.40;55.40;;;;;;4976645;28;20880;-76
2023/08/05 12:22:54;;;;;;;6.80;4.10;;;24.70;55.00;;;;;;4972368;28;21156;-77
2023/08/05 12:25:21;;;;;;;8.30;4.40;;;25.00;54.20;;;;;;4972752;28;20443;-78
2023/08/05 12:27:47;;;;;;;7.10;4.00;;;25.20;53.70;;;;;;4980927;28;20448;-77
2023/08/05 12:30:13;;;;;;;6.30;4.37;;;24.30;54.50;;;;;;4993257;28;20457;-76
2023/08/05 12:32:39;;;;;;;6.37;4.20;;;23.40;57.20;;;;;;5063840;28;20527;-78
2023/08/05 12:35:07;;;;;;;5.40;3.70;;;23.10;58.20;;;;;;5069347;28;20445;-78
2023/08/05 12:37:36;;;;;;;6.43;3.70;;;23.20;58.20;;;;;;5051149;28;20464;-77
2023/08/05 12:40:06;;;;;;;4.80;3.50;;;23.00;58.10;;;;;;5071693;28;20431;-79
2023/08/05 12:42:33;;;;;;;4.87;3.30;;;22.80;59.30;;;;;;5068274;28;20913;-79
2023/08/05 12:45:03;;;;;;;5.83;4.10;;;23.20;58.70;;;;;;5054009;28;20446;-77